createdAt,value
2022-09-15T00:00:09.664Z,5.90
2022-09-15T00:02:37.479Z,5.87
2022-09-15T00:05:05.564Z,6.67
2022-09-15T00:07:33.490Z,5.93
2022-09-15T00:10:01.143Z,7.80
2022-09-15T00:12:29.014Z,6.50
2022-09-15T00:14:56.607Z,5.87
2022-09-15T00:17:25.594Z,5.13
2022-09-15T00:19:53.105Z,5.50
2022-09-15T00:22:21.047Z,5.50
2022-09-15T00:24:49.346Z,5.93
2022-09-15T00:27:16.970Z,5.77
2022-09-15T00:29:45.025Z,6.40
2022-09-15T00:32:12.534Z,7.13
2022-09-15T00:34:41.405Z,6.60
2022-09-15T00:37:09.157Z,7.17
2022-09-15T00:39:36.807Z,7.00
2022-09-15T00:42:04.989Z,8.30
2022-09-15T00:44:50.067Z,7.50
2022-09-15T00:47:19.583Z,6.03
2022-09-15T00:49:50.113Z,7.37
2022-09-15T00:52:20.573Z,6.40
2022-09-15T00:54:50.909Z,6.00
2022-09-15T00:57:20.459Z,6.00
2022-09-15T00:59:48.665Z,5.97
2022-09-15T01:02:17.622Z,6.43
2022-09-15T01:04:45.335Z,6.40
2022-09-15T01:07:16.891Z,5.90
2022-09-15T01:09:46.363Z,6.00
2022-09-15T01:12:14.043Z,5.80
2022-09-15T01:14:41.582Z,5.67
2022-09-15T01:17:15.191Z,6.97
2022-09-15T01:19:59.392Z,6.50
2022-09-15T01:22:34.437Z,6.73
2022-09-15T01:25:07.195Z,7.00
2022-09-15T01:27:43.343Z,6.67
2022-09-15T01:30:14.027Z,6.43
2022-09-15T01:33:04.817Z,6.33
2022-09-15T01:35:47.215Z,6.10
2022-09-15T01:38:18.374Z,6.17
2022-09-15T01:40:48.861Z,6.50
2022-09-15T01:43:18.502Z,6.70
2022-09-15T01:45:48.541Z,6.47
2022-09-15T01:48:18.688Z,6.20
2022-09-15T01:50:47.881Z,6.80
2022-09-15T01:53:17.207Z,5.53
2022-09-15T01:55:47.848Z,7.00
2022-09-15T01:58:15.384Z,6.80
2022-09-15T02:00:44.674Z,6.97
2022-09-15T02:03:17.535Z,8.50
2022-09-15T02:05:47.783Z,6.90
2022-09-15T02:08:25.345Z,6.30
2022-09-15T02:10:59.432Z,8.47
2022-09-15T02:13:32.691Z,6.17
2022-09-15T02:16:01.018Z,6.23
2022-09-15T02:18:34.633Z,6.30
2022-09-15T02:21:06.251Z,6.30
2022-09-15T02:23:37.582Z,6.17
2022-09-15T02:26:08.861Z,6.10
2022-09-15T02:28:38.661Z,7.53
2022-09-15T02:31:08.079Z,5.73
2022-09-15T02:33:40.325Z,6.23
2022-09-15T02:36:10.947Z,5.77
2022-09-15T02:38:42.085Z,6.00
2022-09-15T02:41:09.679Z,5.90
2022-09-15T02:43:45.448Z,6.50
2022-09-15T02:46:13.160Z,6.80
2022-09-15T02:48:42.146Z,6.20
2022-09-15T02:51:09.955Z,6.80
2022-09-15T02:53:37.477Z,6.33
2022-09-15T02:56:06.513Z,5.70
2022-09-15T02:58:34.589Z,7.07
2022-09-15T03:01:04.275Z,9.20
2022-09-15T03:03:32.498Z,6.70
2022-09-15T03:06:16.429Z,8.33
2022-09-15T03:08:45.222Z,6.70
2022-09-15T03:11:12.823Z,6.57
2022-09-15T03:13:41.299Z,9.30
2022-09-15T03:16:09.753Z,8.20
2022-09-15T03:18:37.951Z,8.43
2022-09-15T03:21:08.016Z,6.20
2022-09-15T03:23:35.651Z,12.10
2022-09-15T03:26:03.316Z,6.80
2022-09-15T03:28:31.174Z,9.30
2022-09-15T03:30:58.803Z,7.30
2022-09-15T03:33:29.701Z,7.03
2022-09-15T03:35:57.441Z,7.90
2022-09-15T03:38:26.475Z,8.10
2022-09-15T03:40:58.160Z,6.33
2022-09-15T03:43:26.028Z,9.13
2022-09-15T03:45:53.771Z,10.27
2022-09-15T03:48:22.306Z,7.13
2022-09-15T03:50:49.910Z,7.70
2022-09-15T03:53:17.805Z,7.43
2022-09-15T03:55:47.791Z,6.87
2022-09-15T03:58:15.492Z,7.97
2022-09-15T04:00:43.113Z,7.37
2022-09-15T04:03:10.877Z,9.40
2022-09-15T04:05:38.674Z,8.53
2022-09-15T04:08:06.442Z,8.10
2022-09-15T04:10:35.196Z,8.47
2022-09-15T04:13:04.118Z,7.90
2022-09-15T04:15:31.639Z,8.30
2022-09-15T04:18:00.192Z,7.30
2022-09-15T04:20:27.783Z,7.20
2022-09-15T04:22:55.289Z,7.37
2022-09-15T04:25:22.915Z,8.03
2022-09-15T04:27:50.450Z,8.87
2022-09-15T04:30:19.262Z,8.07
2022-09-15T04:32:47.283Z,8.70
2022-09-15T04:35:15.106Z,7.30
2022-09-15T04:37:42.769Z,7.60
2022-09-15T04:40:11.451Z,8.93
2022-09-15T04:42:39.090Z,9.30
2022-09-15T04:45:07.159Z,8.63
2022-09-15T04:47:36.539Z,9.33
2022-09-15T04:50:04.145Z,9.13
2022-09-15T04:52:32.039Z,8.80
2022-09-15T04:55:00.009Z,9.53
2022-09-15T04:57:27.587Z,8.63
2022-09-15T04:59:55.072Z,9.00
2022-09-15T05:02:22.987Z,9.93
2022-09-15T05:04:52.348Z,8.90
2022-09-15T05:07:20.481Z,9.33
2022-09-15T05:09:48.676Z,8.83
2022-09-15T05:12:16.868Z,9.50
2022-09-15T05:14:44.375Z,9.77
2022-09-15T05:17:12.243Z,9.53
2022-09-15T05:19:39.714Z,11.20
2022-09-15T05:22:08.717Z,9.70
2022-09-15T05:24:36.454Z,9.53
2022-09-15T05:27:04.283Z,9.23
2022-09-15T05:29:31.799Z,8.90
2022-09-15T05:31:59.711Z,9.60
2022-09-15T05:34:27.174Z,9.90
2022-09-15T05:36:55.213Z,9.10
2022-09-15T05:39:24.327Z,9.60
2022-09-15T05:41:52.207Z,9.40
2022-09-15T05:44:21.381Z,9.87
2022-09-15T05:46:49.603Z,9.03
2022-09-15T05:49:17.142Z,8.80
2022-09-15T05:51:45.097Z,8.67
2022-09-15T05:54:12.823Z,7.17
2022-09-15T05:56:41.686Z,7.67
2022-09-15T05:59:09.275Z,7.10
2022-09-15T06:01:37.090Z,7.10
2022-09-15T06:04:04.856Z,7.50
2022-09-15T06:06:32.935Z,7.00
2022-09-15T06:09:02.056Z,7.00
2022-09-15T06:11:30.887Z,5.73
2022-09-15T06:14:01.335Z,5.73
2022-09-15T06:16:31.744Z,4.97
2022-09-15T06:19:01.086Z,4.60
2022-09-15T06:21:29.555Z,5.07
2022-09-15T06:23:58.769Z,4.40
2022-09-15T06:26:27.498Z,4.60
2022-09-15T06:28:56.010Z,3.33
2022-09-15T06:31:25.408Z,4.10
2022-09-15T06:33:55.545Z,3.90
2022-09-15T06:36:24.287Z,3.63
2022-09-15T06:38:52.454Z,3.70
2022-09-15T06:41:20.377Z,3.80
2022-09-15T06:43:49.124Z,3.60
2022-09-15T06:46:17.827Z,3.70
2022-09-15T06:48:48.467Z,3.97
2022-09-15T06:51:17.340Z,3.93
2022-09-15T06:53:45.198Z,3.57
2022-09-15T06:56:13.741Z,3.80
2022-09-15T06:58:41.911Z,3.90
2022-09-15T07:01:10.760Z,3.90
2022-09-15T07:03:39.044Z,3.80
2022-09-15T07:06:08.994Z,4.20
2022-09-15T07:08:36.658Z,4.17
2022-09-15T07:11:04.304Z,3.90
2022-09-15T07:13:31.842Z,4.13
2022-09-15T07:15:59.966Z,4.70
2022-09-15T07:18:28.247Z,3.90
2022-09-15T07:20:59.321Z,4.00
2022-09-15T07:23:28.550Z,4.77
2022-09-15T07:26:05.285Z,4.20
2022-09-15T07:28:33.288Z,5.70
2022-09-15T07:31:00.785Z,5.73
2022-09-15T07:33:28.747Z,6.50
2022-09-15T07:35:56.235Z,4.70
2022-09-15T07:38:23.774Z,4.00
2022-09-15T07:40:52.801Z,4.30
2022-09-15T07:43:20.416Z,4.77
2022-09-15T07:45:47.977Z,5.07
2022-09-15T07:48:15.587Z,4.57
2022-09-15T07:50:46.890Z,5.10
2022-09-15T07:53:14.598Z,3.97
2022-09-15T07:55:42.107Z,6.13
2022-09-15T07:58:11.118Z,4.40
2022-09-15T08:00:38.689Z,4.10
2022-09-15T08:03:06.472Z,4.07
2022-09-15T08:05:38.643Z,3.00
2022-09-15T08:08:08.019Z,3.20
2022-09-15T08:10:35.777Z,3.10
2022-09-15T08:13:04.801Z,3.97
2022-09-15T08:15:36.074Z,4.87
2022-09-15T08:18:03.671Z,3.80
2022-09-15T08:20:31.483Z,3.00
2022-09-15T08:22:59.178Z,3.70
2022-09-15T08:25:27.062Z,3.20
2022-09-15T08:27:56.206Z,3.33
2022-09-15T08:30:24.637Z,2.60
2022-09-15T08:32:53.785Z,3.67
2022-09-15T08:35:21.593Z,2.90
2022-09-15T08:37:49.282Z,2.83
2022-09-15T08:40:17.746Z,3.87
2022-09-15T08:42:47.189Z,3.53
2022-09-15T08:45:19.373Z,3.33
2022-09-15T08:47:47.830Z,2.80
2022-09-15T08:50:23.731Z,2.80
2022-09-15T08:52:53.034Z,3.07
2022-09-15T08:55:23.650Z,2.67
2022-09-15T08:57:54.400Z,2.80
2022-09-15T09:00:22.119Z,3.17
2022-09-15T09:03:11.628Z,2.43
2022-09-15T09:05:49.967Z,2.80
2022-09-15T09:08:34.030Z,2.63
2022-09-15T09:11:06.526Z,5.63
2022-09-15T09:13:38.593Z,2.50
2022-09-15T09:16:14.675Z,3.00
2022-09-15T09:18:50.630Z,3.30
2022-09-15T09:21:23.030Z,2.60
2022-09-15T09:23:53.428Z,6.00
2022-09-15T09:26:21.262Z,2.70
2022-09-15T09:28:50.285Z,2.30
2022-09-15T09:31:19.636Z,2.10
2022-09-15T09:33:51.744Z,2.67
2022-09-15T09:36:21.239Z,2.07
2022-09-15T09:38:49.657Z,2.30
2022-09-15T09:41:18.231Z,2.50
2022-09-15T09:43:47.293Z,3.20
2022-09-15T09:46:16.402Z,2.77
2022-09-15T09:48:44.998Z,2.67
2022-09-15T09:51:27.771Z,2.43
2022-09-15T09:53:56.586Z,2.60
2022-09-15T09:56:24.720Z,2.37
2022-09-15T09:58:53.184Z,2.20
2022-09-15T10:01:21.606Z,2.13
2022-09-15T10:03:49.673Z,2.10
2022-09-15T10:06:18.161Z,2.13
2022-09-15T10:08:57.527Z,2.57
2022-09-15T10:11:40.743Z,2.47
2022-09-15T10:14:17.335Z,1.87
2022-09-15T10:16:45.041Z,2.40
2022-09-15T10:19:14.140Z,2.23
2022-09-15T10:21:41.838Z,2.60
2022-09-15T10:24:24.250Z,1.97
2022-09-15T10:26:53.858Z,1.80
2022-09-15T10:29:24.220Z,1.93
2022-09-15T10:31:52.078Z,2.37
2022-09-15T10:34:26.942Z,2.30
2022-09-15T10:36:55.801Z,2.47
2022-09-15T10:39:31.841Z,2.10
2022-09-15T10:42:08.548Z,1.30
2022-09-15T10:44:43.024Z,1.73
2022-09-15T10:47:20.164Z,1.97
2022-09-15T10:49:53.402Z,1.90
2022-09-15T10:52:27.949Z,1.20
2022-09-15T10:55:08.336Z,1.57
2022-09-15T10:57:49.056Z,1.47
2022-09-15T11:00:20.958Z,1.40
2022-09-15T11:02:58.803Z,1.40
2022-09-15T11:05:44.500Z,3.10
2022-09-15T11:08:18.958Z,2.10
2022-09-15T11:10:50.415Z,1.10
2022-09-15T11:13:25.562Z,1.30
2022-09-15T11:15:58.259Z,1.33
2022-09-15T11:18:33.283Z,1.10
2022-09-15T11:21:08.136Z,1.43
2022-09-15T11:23:38.582Z,1.40
2022-09-15T11:26:08.904Z,1.20
2022-09-15T11:28:39.853Z,1.23
2022-09-15T11:31:10.660Z,1.60
2022-09-15T11:33:44.277Z,1.20
2022-09-15T11:36:14.371Z,1.60
2022-09-15T11:38:48.022Z,1.50
2022-09-15T11:41:20.247Z,1.43
2022-09-15T11:44:06.118Z,1.20
2022-09-15T11:46:51.620Z,1.77
2022-09-15T11:49:21.358Z,1.67
2022-09-15T11:51:53.533Z,1.20
2022-09-15T11:54:23.859Z,1.77
2022-09-15T11:56:52.301Z,1.40
2022-09-15T11:59:27.530Z,1.50
2022-09-15T12:02:00.355Z,1.57
2022-09-15T12:04:30.211Z,1.40
2022-09-15T12:09:31.743Z,1.40
2022-09-15T12:12:01.856Z,1.80
2022-09-15T12:14:33.696Z,1.30
2022-09-15T12:17:01.959Z,1.50
2022-09-15T12:19:42.765Z,1.43
2022-09-15T12:22:13.491Z,1.50
2022-09-15T12:24:44.211Z,1.73
2022-09-15T12:27:15.428Z,1.67
2022-09-15T12:29:50.372Z,1.40
2022-09-15T12:32:19.296Z,2.07
2022-09-15T12:34:56.948Z,1.33
2022-09-15T12:37:25.483Z,2.00
2022-09-15T12:39:54.059Z,1.87
2022-09-15T12:42:23.033Z,2.47
2022-09-15T12:44:53.680Z,2.00
2022-09-15T12:47:23.415Z,1.40
2022-09-15T12:49:52.757Z,1.40
2022-09-15T12:52:21.298Z,1.60
2022-09-15T12:54:53.832Z,2.03
2022-09-15T12:57:24.151Z,1.30
2022-09-15T13:00:17.279Z,1.40
2022-09-15T13:02:46.497Z,2.00
2022-09-15T13:05:15.111Z,1.40
2022-09-15T13:07:57.162Z,2.00
2022-09-15T13:10:32.802Z,1.63
2022-09-15T13:13:08.874Z,1.80
2022-09-15T13:15:41.948Z,1.90
2022-09-15T13:18:09.684Z,1.90
2022-09-15T13:20:39.238Z,1.53
2022-09-15T13:23:08.467Z,2.40
2022-09-15T13:25:36.837Z,2.00
2022-09-15T13:28:04.839Z,1.57
2022-09-15T13:30:38.232Z,1.37
2022-09-15T13:33:13.313Z,1.63
2022-09-15T13:35:47.512Z,1.20
2022-09-15T13:38:32.136Z,1.53
2022-09-15T13:41:21.372Z,1.40
2022-09-15T13:44:04.147Z,1.30
2022-09-15T13:46:38.933Z,12.07
2022-09-15T13:49:19.331Z,1.57
2022-09-15T13:51:53.529Z,2.70
2022-09-15T13:54:21.579Z,2.43
2022-09-15T13:56:53.395Z,1.57
2022-09-15T13:59:24.674Z,1.70
2022-09-15T14:01:53.184Z,1.80
2022-09-15T14:04:23.128Z,1.50
2022-09-15T14:06:51.511Z,2.50
2022-09-15T14:09:20.725Z,1.70
2022-09-15T14:11:49.371Z,1.37
2022-09-15T14:14:33.297Z,1.37
2022-09-15T14:17:01.406Z,1.70
2022-09-15T14:19:33.703Z,1.50
2022-09-15T14:22:01.977Z,1.47
2022-09-15T14:24:30.537Z,1.37
2022-09-15T14:27:00.086Z,2.30
2022-09-15T14:29:28.050Z,2.63
2022-09-15T14:32:00.119Z,4.77
2022-09-15T14:34:30.219Z,1.57
2022-09-15T14:37:01.935Z,1.40
2022-09-15T14:39:29.574Z,2.00
2022-09-15T14:41:57.276Z,1.50
2022-09-15T14:47:17.826Z,2.93
2022-09-15T14:49:45.556Z,1.83
2022-09-15T14:52:21.324Z,2.83
2022-09-15T14:54:49.155Z,1.63
2022-09-15T14:57:21.370Z,1.40
2022-09-15T14:59:51.199Z,1.60
2022-09-15T15:02:22.146Z,5.03
2022-09-15T15:04:52.888Z,2.40
2022-09-15T15:07:24.166Z,1.67
2022-09-15T15:09:56.702Z,3.03
2022-09-15T15:12:26.525Z,1.77
2022-09-15T15:14:56.970Z,2.00
2022-09-15T15:17:27.634Z,2.43
2022-09-15T15:20:00.035Z,1.67
2022-09-15T15:22:29.430Z,1.30
2022-09-15T15:24:57.710Z,1.20
2022-09-15T15:27:26.595Z,1.00
2022-09-15T15:29:54.357Z,1.37
2022-09-15T15:32:23.198Z,1.10
2022-09-15T15:34:51.843Z,1.10
2022-09-15T15:37:25.564Z,1.23
2022-09-15T15:39:56.140Z,1.67
2022-09-15T15:42:24.589Z,2.13
2022-09-15T15:45:02.968Z,1.90
2022-09-15T15:47:32.461Z,2.40
2022-09-15T15:50:12.723Z,1.87
2022-09-15T15:52:47.591Z,2.03
2022-09-15T15:55:17.730Z,1.60
2022-09-15T15:57:47.531Z,1.40
2022-09-15T16:00:21.633Z,4.70
2022-09-15T16:02:52.057Z,2.00
2022-09-15T16:05:20.711Z,1.97
2022-09-15T16:07:50.528Z,3.00
2022-09-15T16:10:21.281Z,2.53
2022-09-15T16:12:48.977Z,1.53
2022-09-15T16:15:18.207Z,3.90
2022-09-15T16:17:46.969Z,1.50
2022-09-15T16:20:15.854Z,2.40
2022-09-15T16:22:44.233Z,2.03
2022-09-15T16:25:14.413Z,1.50
2022-09-15T16:27:43.291Z,1.60
2022-09-15T16:30:12.799Z,1.90
2022-09-15T16:32:41.340Z,1.67
2022-09-15T16:35:15.713Z,2.27
2022-09-15T16:37:43.446Z,2.33
2022-09-15T16:40:11.125Z,1.93
2022-09-15T16:42:38.767Z,1.50
2022-09-15T16:45:16.051Z,1.30
2022-09-15T16:47:45.159Z,1.70
2022-09-15T16:50:13.166Z,1.67
2022-09-15T16:52:40.840Z,1.40
2022-09-15T16:55:16.656Z,2.47
2022-09-15T16:57:45.213Z,1.50
2022-09-15T17:00:15.145Z,1.73
2022-09-15T17:02:42.983Z,1.30
2022-09-15T17:05:15.422Z,2.00
2022-09-15T17:07:43.280Z,2.00
2022-09-15T17:10:10.845Z,1.63
2022-09-15T17:12:39.193Z,1.60
2022-09-15T17:15:17.568Z,3.00
2022-09-15T17:17:46.998Z,1.47
2022-09-15T17:20:14.855Z,1.90
2022-09-15T17:22:42.694Z,1.70
2022-09-15T17:25:21.309Z,1.60
2022-09-15T17:27:49.292Z,3.07
2022-09-15T17:30:18.627Z,1.53
2022-09-15T17:32:47.627Z,1.77
2022-09-15T17:35:19.506Z,2.00
2022-09-15T17:37:47.124Z,1.97
2022-09-15T17:40:14.999Z,2.23
2022-09-15T17:42:43.374Z,3.00
2022-09-15T17:45:15.101Z,2.23
2022-09-15T17:47:43.014Z,2.03
2022-09-15T17:50:12.753Z,2.73
2022-09-15T17:52:41.087Z,3.87
2022-09-15T17:55:17.204Z,5.57
2022-09-15T17:57:44.973Z,1.57
2022-09-15T18:00:13.651Z,1.80
2022-09-15T18:02:42.049Z,1.60
2022-09-15T18:05:17.846Z,1.43
2022-09-15T18:07:45.895Z,2.50
2022-09-15T18:10:13.527Z,1.83
2022-09-15T18:12:43.982Z,2.13
2022-09-15T18:15:16.144Z,2.13
2022-09-15T18:17:43.883Z,1.40
2022-09-15T18:20:17.606Z,1.93
2022-09-15T18:22:45.748Z,3.07
2022-09-15T18:25:20.311Z,1.93
2022-09-15T18:27:49.766Z,3.63
2022-09-15T18:30:20.963Z,3.07
2022-09-15T18:32:48.830Z,1.43
2022-09-15T18:35:29.043Z,1.80
2022-09-15T18:37:57.737Z,1.87
2022-09-15T18:40:28.022Z,2.30
2022-09-15T18:42:56.534Z,2.83
2022-09-15T18:45:24.370Z,2.90
2022-09-15T18:47:54.028Z,3.20
2022-09-15T18:50:26.582Z,2.70
2022-09-15T18:52:57.824Z,3.90
2022-09-15T18:55:26.910Z,2.30
2022-09-15T18:57:56.834Z,2.60
2022-09-15T19:00:27.247Z,1.80
2022-09-15T19:03:01.396Z,2.07
2022-09-15T19:05:30.726Z,1.83
2022-09-15T19:07:58.409Z,3.20
2022-09-15T19:10:26.780Z,2.00
2022-09-15T19:12:54.906Z,1.30
2022-09-15T19:15:24.056Z,1.73
2022-09-15T19:17:53.999Z,2.40
2022-09-15T19:20:21.945Z,1.70
2022-09-15T19:22:53.618Z,2.70
2022-09-15T19:25:21.579Z,2.37
2022-09-15T19:27:49.149Z,1.97
2022-09-15T19:30:16.952Z,1.60
2022-09-15T19:32:44.614Z,2.23
2022-09-15T19:35:12.359Z,1.70
2022-09-15T19:37:40.632Z,2.43
2022-09-15T19:40:10.976Z,2.40
2022-09-15T19:42:38.973Z,2.60
2022-09-15T19:45:07.134Z,2.47
2022-09-15T19:47:35.160Z,2.37
2022-09-15T19:50:02.815Z,3.23
2022-09-15T19:52:31.144Z,2.30
2022-09-15T19:54:59.190Z,1.80
2022-09-15T19:57:28.160Z,2.60
2022-09-15T19:59:55.679Z,1.80
2022-09-15T20:02:23.384Z,2.70
2022-09-15T20:04:52.984Z,2.77
2022-09-15T20:07:20.531Z,2.50
2022-09-15T20:09:48.406Z,2.47
2022-09-15T20:12:16.284Z,2.23
2022-09-15T20:14:45.537Z,1.63
2022-09-15T20:17:13.269Z,1.97
2022-09-15T20:19:41.198Z,1.70
2022-09-15T20:22:09.207Z,2.03
2022-09-15T20:24:43.336Z,2.00
2022-09-15T20:27:11.820Z,2.70
2022-09-15T20:29:40.144Z,3.60
2022-09-15T20:32:12.321Z,2.30
2022-09-15T20:34:42.795Z,2.77
2022-09-15T20:37:10.654Z,3.17
2022-09-15T20:39:41.351Z,2.00
2022-09-15T20:42:10.485Z,2.37
2022-09-15T20:44:41.459Z,2.03
2022-09-15T20:47:14.961Z,2.23
2022-09-15T20:49:45.362Z,2.70
2022-09-15T20:52:15.109Z,2.03
2022-09-15T20:54:42.708Z,1.33
2022-09-15T20:57:10.838Z,2.07
2022-09-15T20:59:38.522Z,2.40
2022-09-15T21:02:07.069Z,2.03
2022-09-15T21:04:38.636Z,2.10
2022-09-15T21:07:09.267Z,2.37
2022-09-15T21:09:39.414Z,5.20
2022-09-15T21:12:07.367Z,3.80
2022-09-15T21:14:34.889Z,2.57
2022-09-15T21:17:07.837Z,3.47
2022-09-15T21:19:40.177Z,2.60
2022-09-15T21:22:21.241Z,1.70
2022-09-15T21:24:48.923Z,2.77
2022-09-15T21:27:29.090Z,2.70
2022-09-15T21:29:56.721Z,2.10
2022-09-15T21:32:25.148Z,2.13
2022-09-15T21:34:54.263Z,2.20
2022-09-15T21:37:23.334Z,2.20
2022-09-15T21:39:50.992Z,2.70
2022-09-15T21:42:18.887Z,3.70
2022-09-15T21:44:46.539Z,2.00
2022-09-15T21:47:14.662Z,3.13
2022-09-15T21:49:42.743Z,2.97
2022-09-15T21:52:10.222Z,3.30
2022-09-15T21:54:39.839Z,3.47
2022-09-15T21:57:07.400Z,2.77
2022-09-15T21:59:34.983Z,2.80
2022-09-15T22:02:02.505Z,1.70
2022-09-15T22:04:30.718Z,1.80
2022-09-15T22:06:58.278Z,2.50
2022-09-15T22:09:26.221Z,2.40
2022-09-15T22:11:55.255Z,2.30
2022-09-15T22:14:22.827Z,2.50
2022-09-15T22:16:50.356Z,2.33
2022-09-15T22:19:18.571Z,2.37
2022-09-15T22:21:46.108Z,2.23
2022-09-15T22:24:14.344Z,2.23
2022-09-15T22:26:42.691Z,2.67
2022-09-15T22:29:12.203Z,2.33
2022-09-15T22:31:40.822Z,2.30
2022-09-15T22:34:08.883Z,2.10
2022-09-15T22:36:37.310Z,3.70
2022-09-15T22:39:05.986Z,2.20
2022-09-15T22:41:34.713Z,2.07
2022-09-15T22:44:02.687Z,2.03
2022-09-15T22:46:32.043Z,2.67
2022-09-15T22:48:59.884Z,2.33
2022-09-15T22:51:27.389Z,1.90
2022-09-15T22:53:57.214Z,1.63
2022-09-15T22:56:26.534Z,2.63
2022-09-15T22:58:54.505Z,2.00
2022-09-15T23:01:23.738Z,1.83
2022-09-15T23:03:53.453Z,2.03
2022-09-15T23:06:21.544Z,1.60
2022-09-15T23:08:50.496Z,2.67
2022-09-15T23:11:18.479Z,2.07
2022-09-15T23:13:46.193Z,2.47
2022-09-15T23:16:13.938Z,1.53
2022-09-15T23:18:41.655Z,2.20
2022-09-15T23:21:12.038Z,2.70
2022-09-15T23:23:41.180Z,1.80
2022-09-15T23:26:10.248Z,2.60
2022-09-15T23:28:38.947Z,1.77
2022-09-15T23:31:06.919Z,2.00
2022-09-15T23:33:34.936Z,1.90
2022-09-15T23:36:04.494Z,2.23
2022-09-15T23:38:35.968Z,1.67
2022-09-15T23:41:03.476Z,1.70
2022-09-15T23:43:33.052Z,1.40
2022-09-15T23:46:03.166Z,1.50
2022-09-15T23:48:32.492Z,1.80
2022-09-15T23:51:00.748Z,1.53
2022-09-15T23:53:28.357Z,1.67
2022-09-15T23:55:57.911Z,1.13
2022-09-15T23:58:28.667Z,2.07
